Time;durP1;ratioP1;P1;durP2;ratioP2;P2;SDS_P1;SDS_P2;PMS_P1;PMS_P2;Temp;Humidity;BMP_temperature;BMP_pressure;BME280_temperature;BME280_humidity;BME280_pressure;Samples;Min_cycle;Max_cycle;Signal;HPM_P1;HPM_P2
2023/05/06 00:01:11;;;;;;;1.98;1.30;;;;;;;1.51;100.00;99695.22;5160303;27;20043;-60
2023/05/06 00:03:37;;;;;;;2.40;1.63;;;;;;;1.61;100.00;99697.78;5159869;27;20062;-66
2023/05/06 00:06:05;;;;;;;3.53;1.17;;;;;;;1.67;100.00;99676.88;5160083;27;20300;-65
2023/05/06 00:08:31;;;;;;;1.40;1.23;;;;;;;1.55;100.00;99688.13;5159802;27;20129;-66
2023/05/06 00:10:57;;;;;;;4.40;1.33;;;;;;;1.59;100.00;99667.53;5160418;27;20443;-64
2023/05/06 00:13:24;;;;;;;3.33;1.50;;;;;;;1.49;100.00;99659.56;5159702;27;20078;-64
2023/05/06 00:15:50;;;;;;;3.97;1.60;;;;;;;1.56;100.00;99665.41;5160263;27;20047;-59
2023/05/06 00:18:16;;;;;;;2.25;1.45;;;;;;;1.56;100.00;99649.19;5162180;27;20181;-62
2023/05/06 00:20:42;;;;;;;1.70;1.38;;;;;;;1.43;100.00;99634.53;5161410;27;20373;-65
2023/05/06 00:23:07;;;;;;;1.88;1.40;;;;;;;1.30;100.00;99646.88;5159920;27;20051;-59
2023/05/06 00:25:33;;;;;;;2.20;1.50;;;;;;;1.28;100.00;99642.88;5159524;27;20050;-56
2023/05/06 00:27:59;;;;;;;2.50;1.27;;;;;;;1.52;100.00;99643.59;5159763;27;20106;-58
2023/05/06 00:30:26;;;;;;;1.77;1.10;;;;;;;1.20;100.00;99638.94;5159554;27;20328;-63
2023/05/06 00:32:52;;;;;;;2.17;1.20;;;;;;;1.41;100.00;99626.72;5159625;27;20403;-62
2023/05/06 00:35:18;;;;;;;4.22;1.67;;;;;;;1.49;100.00;99637.97;5159381;27;20050;-64
2023/05/06 00:37:45;;;;;;;3.42;1.60;;;;;;;1.58;100.00;99638.91;5159745;27;20149;-56
2023/05/06 00:40:12;;;;;;;2.95;1.50;;;;;;;1.21;100.00;99627.03;5159288;27;20050;-58
2023/05/06 00:42:37;;;;;;;2.28;1.35;;;;;;;1.43;100.00;99629.13;5159802;27;20046;-56
2023/05/06 00:45:06;;;;;;;4.70;1.48;;;;;;;1.23;100.00;99635.63;5159106;27;20302;-54
2023/05/06 00:47:32;;;;;;;2.08;1.40;;;;;;;1.34;100.00;99637.09;5159302;27;20424;-57
2023/05/06 00:49:59;;;;;;;2.10;1.35;;;;;;;1.39;100.00;99634.31;5159410;27;20069;-64
2023/05/06 00:52:25;;;;;;;2.35;1.20;;;;;;;1.32;100.00;99625.78;5159282;27;20042;-65
2023/05/06 00:54:50;;;;;;;1.88;1.23;;;;;;;1.31;100.00;99631.47;5159394;27;20141;-57
2023/05/06 00:57:16;;;;;;;3.58;1.27;;;;;;;1.19;100.00;99631.91;5158985;27;20054;-57
2023/05/06 00:59:43;;;;;;;3.80;1.40;;;;;;;1.32;100.00;99620.38;5158748;27;20074;-64
2023/05/06 01:02:09;;;;;;;1.85;1.48;;;;;;;1.41;100.00;99631.31;5158885;27;20050;-56
2023/05/06 01:04:36;;;;;;;1.65;1.38;;;;;;;1.28;100.00;99619.34;5159340;27;20049;-56
2023/05/06 01:07:08;;;;;;;1.10;1.00;;;;;;;1.26;100.00;99610.72;5158739;27;20058;-66
2023/05/06 01:09:40;;;;;;;2.65;1.50;;;;;;;1.34;100.00;99604.69;5159331;27;20054;-56
2023/05/06 01:12:10;;;;;;;2.35;1.45;;;;;;;1.24;100.00;99596.72;5158759;27;20062;-65
2023/05/06 01:14:44;;;;;;;6.70;1.67;;;;;;;1.35;100.00;99603.56;5158787;27;20102;-65
2023/05/06 01:17:14;;;;;;;1.73;1.30;;;;;;;0.97;100.00;99605.47;5158825;27;20118;-64
2023/05/06 01:19:45;;;;;;;2.25;1.60;;;;;;;1.12;100.00;99572.84;5158856;27;20137;-64
2023/05/06 01:22:12;;;;;;;1.30;1.20;;;;;;;1.08;100.00;99565.63;5159016;27;20083;-61
2023/05/06 01:24:40;;;;;;;1.67;1.42;;;;;;;0.99;100.00;99548.47;5158703;27;20046;-60
2023/05/06 01:27:08;;;;;;;4.32;1.50;;;;;;;1.16;100.00;99535.25;5158913;27;20055;-62
2023/05/06 01:29:36;;;;;;;4.43;1.58;;;;;;;0.91;100.00;99520.25;5158503;27;20078;-65
2023/05/06 01:32:17;;;;;;;3.47;1.20;;;;;;;0.82;100.00;99505.78;5158908;27;20137;-59
2023/05/06 01:34:47;;;;;;;1.52;1.42;;;;;;;0.68;100.00;99470.66;5158690;27;20110;-55
2023/05/06 01:37:21;;;;;;;3.10;1.42;;;;;;;0.67;100.00;99461.75;5158584;27;20138;-56
2023/05/06 01:39:49;;;;;;;1.77;1.55;;;;;;;0.71;100.00;99440.38;5158738;27;20046;-64
2023/05/06 01:42:17;;;;;;;3.70;1.85;;;;;;;0.58;100.00;99433.81;5158436;27;20106;-58
2023/05/06 01:44:43;;;;;;;4.00;1.10;;;;;;;0.55;100.00;99428.22;5158474;27;20500;-60
2023/05/06 01:47:11;;;;;;;3.08;1.25;;;;;;;0.41;100.00;99411.94;5158396;27;20511;-60
2023/05/06 01:49:37;;;;;;;2.10;1.70;;;;;;;0.45;100.00;99397.56;5158705;27;20138;-56
2023/05/06 01:52:03;;;;;;;2.95;1.27;;;;;;;0.33;100.00;99383.72;5158148;27;20145;-58
2023/05/06 01:54:29;;;;;;;2.00;1.33;;;;;;;0.25;100.00;99360.13;5158614;27;20055;-59
2023/05/06 01:56:56;;;;;;;2.92;1.35;;;;;;;0.08;100.00;99349.03;5158070;27;20057;-63
2023/05/06 01:59:22;;;;;;;7.22;1.73;;;;;;;0.13;100.00;99343.56;5158520;27;20189;-60
2023/05/06 02:01:49;;;;;;;3.10;1.42;;;;;;;0.16;100.00;99333.00;5158362;27;20116;-64
2023/05/06 02:04:15;;;;;;;3.13;1.30;;;;;;;0.16;100.00;99322.22;5157962;27;20098;-58
2023/05/06 02:06:41;;;;;;;1.42;1.30;;;;;;;0.04;100.00;99316.47;5158156;27;20055;-59
2023/05/06 02:09:07;;;;;;;6.13;1.45;;;;;;;0.12;100.00;99312.31;5157907;27;20439;-58
2023/05/06 02:11:33;;;;;;;5.25;1.50;;;;;;;0.05;100.00;99301.09;5159555;27;20129;-56
2023/05/06 02:14:00;;;;;;;1.50;1.40;;;;;;;0.01;100.00;99298.19;5161548;27;20050;-54
2023/05/06 02:16:27;;;;;;;7.38;1.90;;;;;;;0.08;100.00;99301.31;5162151;27;20145;-59
2023/05/06 02:18:53;;;;;;;3.90;1.50;;;;;;;0.13;100.00;99295.84;5161594;27;20180;-60
2023/05/06 02:21:19;;;;;;;2.72;1.60;;;;;;;-0.03;100.00;99306.06;5161989;27;20062;-62
2023/05/06 02:23:45;;;;;;;2.90;1.30;;;;;;;0.11;100.00;99302.63;5161565;27;20400;-64
2023/05/06 02:26:11;;;;;;;1.60;1.25;;;;;;;0.11;100.00;99302.63;5161858;27;20400;-63
2023/05/06 02:28:37;;;;;;;1.92;1.40;;;;;;;0.10;100.00;99299.16;5161389;27;20046;-59
2023/05/06 02:31:03;;;;;;;3.10;1.50;;;;;;;-0.08;100.00;99299.94;5161598;27;20297;-58
2023/05/06 02:33:29;;;;;;;1.70;1.52;;;;;;;0.00;100.00;99304.69;5161614;27;20335;-58
2023/05/06 02:35:55;;;;;;;2.88;1.50;;;;;;;0.08;100.00;99306.72;5161210;27;20053;-55
2023/05/06 02:38:22;;;;;;;3.28;1.50;;;;;;;0.23;100.00;99321.84;5161818;27;20054;-55
2023/05/06 02:40:48;;;;;;;3.10;1.27;;;;;;;0.37;100.00;99335.41;5161682;27;20167;-58
2023/05/06 02:43:13;;;;;;;2.20;1.30;;;;;;;0.14;100.00;99339.81;5161601;27;20442;-55
2023/05/06 02:45:39;;;;;;;2.25;1.70;;;;;;;0.22;100.00;99333.75;5161317;27;20067;-54
2023/05/06 02:48:06;;;;;;;7.80;1.70;;;;;;;0.33;100.00;99321.69;5161469;27;20147;-58
2023/05/06 02:50:34;;;;;;;2.90;1.60;;;;;;;0.30;100.00;99348.44;5161341;27;20133;-64
2023/05/06 02:52:59;;;;;;;1.55;1.27;;;;;;;0.50;100.00;99366.22;5161695;27;20145;-66
2023/05/06 02:55:25;;;;;;;3.08;1.77;;;;;;;0.96;100.00;99368.97;5160984;27;20138;-65
2023/05/06 02:57:51;;;;;;;5.18;1.50;;;;;;;1.40;100.00;99394.69;5161423;27;20051;-65
2023/05/06 03:00:18;;;;;;;1.65;1.40;;;;;;;1.86;100.00;99437.84;5161183;27;20093;-64
2023/05/06 03:02:44;;;;;;;1.42;1.20;;;;;;;2.11;100.00;99479.03;5161076;27;20214;-64
2023/05/06 03:05:10;;;;;;;2.83;1.33;;;;;;;1.91;100.00;99533.50;5161361;27;20400;-65
2023/05/06 03:07:37;;;;;;;2.47;1.60;;;;;;;2.76;100.00;99565.34;5160930;27;20050;-64
2023/05/06 03:10:03;;;;;;;3.03;1.40;;;;;;;2.75;100.00;99604.38;5161121;27;20051;-64
2023/05/06 03:12:29;;;;;;;2.35;1.52;;;;;;;3.45;100.00;99643.78;5160822;27;20061;-63
2023/05/06 03:14:55;;;;;;;3.80;2.05;;;;;;;3.77;100.00;99697.00;5161020;27;20187;-64
2023/05/06 03:17:21;;;;;;;2.10;1.70;;;;;;;3.92;100.00;99727.59;5160771;27;20394;-61
2023/05/06 03:19:48;;;;;;;2.28;1.70;;;;;;;4.13;100.00;99760.47;5161091;27;20099;-58
2023/05/06 03:22:15;;;;;;;2.17;1.40;;;;;;;4.57;100.00;99786.03;5160184;27;20059;-56
2023/05/06 03:24:41;;;;;;;4.35;1.40;;;;;;;4.72;100.00;99810.09;5160485;27;20331;-60
2023/05/06 03:27:07;;;;;;;3.05;1.40;;;;;;;5.47;100.00;99846.47;5160661;27;20142;-60
2023/05/06 03:29:33;;;;;;;2.25;1.42;;;;;;;5.07;100.00;99862.75;5160697;27;20092;-59
2023/05/06 03:32:02;;;;;;;3.60;1.40;;;;;;;5.54;100.00;99876.72;5160475;27;20432;-58
2023/05/06 03:34:28;;;;;;;3.20;1.30;;;;;;;5.47;100.00;99886.44;5160273;27;20042;-60
2023/05/06 03:36:54;;;;;;;2.65;1.48;;;;;;;5.72;100.00;99893.09;5160647;27;20145;-60
2023/05/06 03:39:20;;;;;;;2.30;1.63;;;;;;;5.13;100.00;99910.41;5160488;27;20137;-59
2023/05/06 03:41:46;;;;;;;1.35;1.25;;;;;;;5.60;100.00;99921.72;5160630;27;20119;-57
2023/05/06 03:44:12;;;;;;;8.13;1.58;;;;;;;6.67;100.00;99926.00;5160360;27;20061;-57
2023/05/06 03:46:39;;;;;;;1.58;1.42;;;;;;;6.45;100.00;99945.22;5160384;27;20312;-57
2023/05/06 03:49:04;;;;;;;3.67;1.38;;;;;;;6.91;100.00;99946.53;5160504;27;20057;-57
2023/05/06 03:51:31;;;;;;;2.67;1.90;;;;;;;6.52;100.00;99946.34;5162155;27;20432;-60
2023/05/06 03:53:57;;;;;;;2.72;1.38;;;;;;;7.24;98.72;99949.56;5162255;27;20110;-64
2023/05/06 03:56:23;;;;;;;2.13;1.35;;;;;;;7.76;92.51;99966.59;5160945;27;20150;-58
2023/05/06 03:58:49;;;;;;;2.72;1.65;;;;;;;8.04;90.87;99974.38;5160232;27;20142;-58
2023/05/06 04:01:16;;;;;;;4.43;1.80;;;;;;;8.53;87.74;99977.53;5160112;27;20089;-57
2023/05/06 04:03:43;;;;;;;4.60;1.50;;;;;;;8.23;86.87;99979.41;5160269;27;20355;-61
2023/05/06 04:06:09;;;;;;;3.15;1.55;;;;;;;7.96;88.04;99984.22;5159944;27;20141;-56
2023/05/06 04:08:35;;;;;;;6.05;1.60;;;;;;;8.91;85.44;99998.47;5160119;27;20050;-65
2023/05/06 04:11:04;;;;;;;3.00;1.80;;;;;;;9.33;80.47;100002.00;5159833;27;20070;-63
2023/05/06 04:13:30;;;;;;;10.95;1.70;;;;;;;9.40;78.75;100004.19;5160173;27;20107;-66
2023/05/06 04:15:57;;;;;;;9.43;1.60;;;;;;;9.11;76.57;100016.03;5159755;27;20413;-65
2023/05/06 04:18:23;;;;;;;2.47;1.60;;;;;;;9.45;76.80;100017.66;5160117;27;20332;-63
2023/05/06 04:20:49;;;;;;;5.20;2.08;;;;;;;9.38;74.42;100018.19;5159623;27;20154;-64
2023/05/06 04:23:15;;;;;;;3.55;1.60;;;;;;;9.67;72.21;100024.69;5160021;27;20046;-66
2023/05/06 04:25:47;;;;;;;7.30;1.98;;;;;;;9.28;72.96;100024.09;5159833;27;20042;-56
2023/05/06 04:28:15;;;;;;;3.55;1.83;;;;;;;10.22;71.90;100014.41;5159633;27;20050;-57
2023/05/06 04:30:42;;;;;;;3.88;1.65;;;;;;;9.81;74.66;100014.22;5159579;27;20320;-64
2023/05/06 04:33:08;;;;;;;5.65;1.85;;;;;;;10.43;73.11;100014.31;5159407;27;20046;-60
2023/05/06 04:35:34;;;;;;;6.38;1.40;;;;;;;10.81;70.54;100017.50;5158819;27;20042;-56
2023/05/06 04:38:02;;;;;;;5.97;2.05;;;;;;;10.54;71.63;100019.00;5159433;27;20046;-62
2023/05/06 04:40:28;;;;;;;5.30;1.73;;;;;;;11.14;68.57;100021.22;5159311;27;20042;-55
2023/05/06 04:42:54;;;;;;;2.58;1.45;;;;;;;9.31;69.53;100020.69;5159263;27;20141;-61
2023/05/06 04:45:21;;;;;;;3.85;1.83;;;;;;;9.69;70.75;100016.13;5159657;27;20062;-66
2023/05/06 04:47:48;;;;;;;2.15;1.60;;;;;;;10.55;68.83;100020.59;5158959;27;20465;-55
2023/05/06 04:50:13;;;;;;;2.95;1.58;;;;;;;11.36;66.76;100025.34;5159678;27;20141;-61
2023/05/06 04:52:40;;;;;;;5.40;1.60;;;;;;;11.46;67.93;100019.34;5159217;27;20062;-60
2023/05/06 04:55:06;;;;;;;2.88;1.85;;;;;;;11.99;65.28;100031.00;5159038;27;20164;-57
2023/05/06 04:57:32;;;;;;;4.93;1.77;;;;;;;12.14;63.32;100032.19;5159152;27;20466;-59
2023/05/06 04:59:58;;;;;;;3.83;1.70;;;;;;;10.68;64.18;100037.84;5159016;27;20054;-56
2023/05/06 05:02:24;;;;;;;4.35;1.60;;;;;;;11.54;64.65;100032.94;5159185;27;20051;-55
2023/05/06 05:04:50;;;;;;;4.22;1.85;;;;;;;12.30;64.43;100034.94;5158902;27;20369;-56
2023/05/06 05:07:16;;;;;;;4.10;1.67;;;;;;;12.28;63.60;100034.50;5159098;27;20357;-56
2023/05/06 05:09:42;;;;;;;2.58;1.67;;;;;;;12.78;60.72;100038.44;5158636;27;20102;-62
2023/05/06 05:12:08;;;;;;;3.25;2.00;;;;;;;12.99;60.21;100038.91;5159166;27;20082;-59
2023/05/06 05:14:34;;;;;;;4.28;2.22;;;;;;;12.10;60.45;100045.06;5159046;27;20047;-62
2023/05/06 05:17:00;;;;;;;1.98;1.70;;;;;;;12.10;60.28;100042.31;5159059;27;20062;-64
2023/05/06 05:19:26;;;;;;;2.80;1.80;;;;;;;12.76;58.93;100030.53;5158711;27;20416;-63
2023/05/06 05:21:53;;;;;;;6.35;2.40;;;;;;;13.05;58.97;100037.47;5159077;27;20407;-63
2023/05/06 05:24:20;;;;;;;3.10;2.78;;;;;;;12.37;60.68;100040.63;5158587;27;20046;-64
2023/05/06 05:26:46;;;;;;;2.30;1.80;;;;;;;13.07;58.11;100034.38;5158650;27;20316;-60
2023/05/06 05:29:12;;;;;;;6.20;2.20;;;;;;;13.25;58.89;100035.56;5158663;27;20051;-59
2023/05/06 05:31:38;;;;;;;3.90;1.90;;;;;;;13.38;57.81;100038.97;5158714;27;20081;-62
2023/05/06 05:34:04;;;;;;;3.30;2.38;;;;;;;12.92;57.85;100038.75;5158782;27;20107;-64
2023/05/06 05:36:30;;;;;;;2.70;1.80;;;;;;;12.64;57.92;100039.69;5158548;27;20047;-64
2023/05/06 05:38:57;;;;;;;4.30;2.03;;;;;;;12.89;57.27;100033.97;5158645;27;20051;-63
2023/05/06 05:41:24;;;;;;;5.78;2.15;;;;;;;13.52;57.81;100042.00;5158358;27;20491;-64
2023/05/06 05:43:50;;;;;;;2.10;1.63;;;;;;;14.48;56.72;100037.44;5158614;27;20358;-58
2023/05/06 05:46:16;;;;;;;5.53;1.98;;;;;;;14.15;56.53;100038.06;5158082;27;20085;-59
2023/05/06 05:48:42;;;;;;;4.70;1.70;;;;;;;14.25;55.50;100039.41;5158538;27;20058;-56
2023/05/06 05:51:09;;;;;;;4.55;1.90;;;;;;;14.44;56.00;100036.59;5158065;27;20309;-56
2023/05/06 05:53:35;;;;;;;3.10;1.85;;;;;;;14.32;55.91;100040.31;5158317;27;20388;-59
2023/05/06 05:56:02;;;;;;;2.80;2.55;;;;;;;14.32;55.82;100040.31;5158436;27;20141;-61
2023/05/06 05:58:28;;;;;;;3.45;1.60;;;;;;;14.66;54.74;100036.94;5158219;27;20054;-58
2023/05/06 06:00:54;;;;;;;3.67;1.88;;;;;;;14.94;53.41;100045.66;5158094;27;20424;-56
2023/05/06 06:03:20;;;;;;;1.55;1.45;;;;;;;14.96;52.73;100050.78;5158058;27;20085;-54
2023/05/06 06:05:48;;;;;;;5.50;1.75;;;;;;;14.61;52.63;100048.31;5157836;27;20146;-57
2023/05/06 06:08:17;;;;;;;1.92;1.58;;;;;;;15.28;53.91;100051.22;5157983;27;20082;-60
2023/05/06 06:10:43;;;;;;;2.80;2.00;;;;;;;15.17;51.91;100058.59;5158271;27;20061;-62
2023/05/06 06:13:09;;;;;;;1.63;1.45;;;;;;;16.03;51.61;100052.13;5157946;27;20046;-61
2023/05/06 06:15:35;;;;;;;2.08;1.40;;;;;;;15.06;50.72;100056.47;5157639;27;20404;-64
2023/05/06 06:18:01;;;;;;;2.78;1.63;;;;;;;16.08;50.44;100062.03;5157759;27;20062;-60
2023/05/06 06:20:27;;;;;;;3.17;1.65;;;;;;;15.40;50.71;100064.03;5157910;27;20078;-58
2023/05/06 06:22:53;;;;;;;1.83;1.65;;;;;;;14.70;52.70;100065.41;5157969;27;20065;-57
2023/05/06 06:25:20;;;;;;;3.70;1.35;;;;;;;14.47;52.56;100062.66;5157681;27;20115;-55
2023/05/06 06:27:46;;;;;;;4.43;2.08;;;;;;;15.32;51.42;100065.09;5157923;27;20054;-62
2023/05/06 06:30:13;;;;;;;1.70;1.60;;;;;;;15.79;50.92;100061.72;5157848;27;20366;-60
2023/05/06 06:32:47;;;;;;;1.80;1.70;;;;;;;16.03;50.67;100068.72;5157938;27;20293;-55
2023/05/06 06:35:13;;;;;;;1.55;1.40;;;;;;;15.12;48.87;100062.47;5157543;27;20050;-58
2023/05/06 06:37:39;;;;;;;1.15;1.00;;;;;;;14.80;49.03;100065.56;5157977;27;20051;-61
2023/05/06 06:40:06;;;;;;;1.33;1.23;;;;;;;15.02;49.13;100061.13;5157578;27;20135;-64
2023/05/06 06:42:32;;;;;;;1.73;1.40;;;;;;;15.77;48.67;100075.16;5157913;27;20403;-56
2023/05/06 06:44:58;;;;;;;2.45;1.45;;;;;;;16.05;48.89;100068.34;5157147;27;20053;-58
2023/05/06 06:47:24;;;;;;;2.17;1.42;;;;;;;16.74;48.99;100067.75;5157519;27;20055;-59
2023/05/06 06:49:50;;;;;;;4.97;1.40;;;;;;;16.99;49.52;100068.72;5157440;27;20046;-57
2023/05/06 06:52:16;;;;;;;4.18;1.83;;;;;;;16.30;49.96;100079.66;5157322;27;20054;-58
2023/05/06 06:54:42;;;;;;;2.63;1.80;;;;;;;14.53;52.92;100075.78;5157431;27;20057;-60
2023/05/06 06:57:08;;;;;;;3.83;1.90;;;;;;;14.81;53.82;100071.88;5158007;27;20091;-62
2023/05/06 06:59:34;;;;;;;2.95;1.45;;;;;;;15.72;52.90;100072.72;5161041;27;20069;-63
2023/05/06 07:02:00;;;;;;;5.93;1.80;;;;;;;14.55;53.04;100070.69;5160632;27;20054;-59
2023/05/06 07:04:26;;;;;;;6.45;1.65;;;;;;;15.20;52.23;100066.91;5161013;27;20051;-57
2023/05/06 07:06:52;;;;;;;2.67;1.50;;;;;;;16.04;51.69;100080.56;5160574;27;20051;-61
2023/05/06 07:09:18;;;;;;;5.53;1.60;;;;;;;15.91;51.15;100083.59;5161084;27;20127;-58
2023/05/06 07:11:44;;;;;;;1.60;1.50;;;;;;;15.88;50.84;100069.75;5160681;27;20449;-56
2023/05/06 07:14:10;;;;;;;2.17;1.50;;;;;;;14.72;49.22;100077.66;5162182;27;20046;-63
2023/05/06 07:16:36;;;;;;;2.05;1.42;;;;;;;15.44;49.51;100070.38;5163306;27;20121;-60
2023/05/06 07:19:02;;;;;;;2.30;1.20;;;;;;;15.20;50.62;100074.41;5160813;27;20138;-59
2023/05/06 07:21:31;;;;;;;1.30;1.20;;;;;;;15.79;49.21;100078.31;5160840;27;20057;-59
2023/05/06 07:23:57;;;;;;;2.15;1.40;;;;;;;15.20;47.41;100074.41;5160422;27;20050;-62
2023/05/06 07:26:23;;;;;;;1.13;1.02;;;;;;;15.56;46.42;100078.44;5160614;27;20050;-58
2023/05/06 07:28:49;;;;;;;1.17;1.08;;;;;;;15.83;46.55;100081.13;5160475;27;20558;-61
2023/05/06 07:31:19;;;;;;;4.68;1.10;;;;;;;14.06;46.63;100070.59;5160818;27;20082;-57
2023/05/06 07:33:45;;;;;;;2.55;1.10;;;;;;;14.84;48.02;100079.41;5160385;27;20051;-58
2023/05/06 07:36:11;;;;;;;1.15;1.05;;;;;;;15.36;47.51;100077.78;5160944;27;20047;-57
2023/05/06 07:38:38;;;;;;;1.88;1.40;;;;;;;14.70;47.99;100071.72;5160279;27;20101;-61
2023/05/06 07:41:04;;;;;;;2.40;1.73;;;;;;;14.56;48.59;100077.00;5160195;27;20199;-56
2023/05/06 07:43:30;;;;;;;2.63;1.60;;;;;;;14.76;49.99;100061.13;5160160;27;20051;-60
2023/05/06 07:46:01;;;;;;;4.72;1.20;;;;;;;14.26;49.61;100069.41;5160555;27;20046;-62
2023/05/06 07:48:27;;;;;;;3.38;1.17;;;;;;;12.44;51.36;100069.09;5160287;27;20189;-57
2023/05/06 07:50:53;;;;;;;5.05;1.30;;;;;;;12.45;51.62;100081.69;5160223;27;20050;-61
2023/05/06 07:53:19;;;;;;;1.52;1.20;;;;;;;11.64;52.74;100061.84;5160319;27;20375;-63
2023/05/06 07:55:45;;;;;;;1.38;1.05;;;;;;;11.30;54.53;100079.72;5159890;27;20089;-64
2023/05/06 07:58:11;;;;;;;1.20;1.10;;;;;;;11.90;54.94;100075.16;5160184;27;20050;-60
2023/05/06 08:00:37;;;;;;;2.55;1.25;;;;;;;11.86;54.30;100071.53;5159713;27;20050;-63
2023/05/06 08:03:03;;;;;;;2.00;1.00;;;;;;;11.21;52.89;100066.13;5160037;27;20046;-63
2023/05/06 08:05:29;;;;;;;4.22;1.40;;;;;;;10.90;52.80;100082.41;5159667;27;20082;-57
2023/05/06 08:07:55;;;;;;;5.25;1.73;;;;;;;10.78;52.91;100084.00;5159833;27;20053;-55
2023/05/06 08:10:21;;;;;;;1.88;1.23;;;;;;;10.14;54.32;100070.91;5158556;27;20053;-58
2023/05/06 08:12:48;;;;;;;2.13;1.42;;;;;;;11.64;54.17;100083.03;5160193;27;20130;-57
2023/05/06 08:15:14;;;;;;;1.20;1.08;;;;;;;11.82;53.14;100084.31;5159635;27;20102;-59
2023/05/06 08:17:40;;;;;;;1.38;1.15;;;;;;;12.98;52.30;100081.34;5159883;27;20058;-55
2023/05/06 08:20:07;;;;;;;3.83;1.10;;;;;;;14.31;50.71;100071.03;5159564;27;20054;-56
2023/05/06 08:22:33;;;;;;;1.02;0.88;;;;;;;15.41;48.15;100085.75;5159559;27;20141;-61
2023/05/06 08:24:59;;;;;;;3.30;1.17;;;;;;;14.22;47.51;100078.75;5159580;27;20064;-62
2023/05/06 08:27:25;;;;;;;1.40;1.30;;;;;;;14.12;47.57;100083.69;5159313;27;20046;-60
2023/05/06 08:29:52;;;;;;;1.90;1.08;;;;;;;12.51;49.19;100073.97;5159905;27;20099;-59
2023/05/06 08:32:18;;;;;;;3.53;1.35;;;;;;;12.23;50.62;100082.31;5159307;27;20434;-59
2023/05/06 08:34:44;;;;;;;2.38;0.95;;;;;;;11.95;49.50;100085.88;5159841;27;20047;-56
2023/05/06 08:37:10;;;;;;;1.27;1.13;;;;;;;12.75;49.36;100077.66;5159054;27;20051;-60
2023/05/06 08:39:36;;;;;;;2.80;1.08;;;;;;;14.11;47.62;100078.56;5159715;27;20103;-64
2023/05/06 08:42:02;;;;;;;1.33;1.13;;;;;;;14.95;48.02;100080.38;5159218;27;20412;-65
2023/05/06 08:44:28;;;;;;;1.40;0.80;;;;;;;15.56;47.67;100074.84;5159613;27;20073;-60
2023/05/06 08:46:55;;;;;;;3.10;1.17;;;;;;;15.27;46.83;100066.22;5159025;27;20207;-62
2023/05/06 08:49:21;;;;;;;1.73;1.13;;;;;;;15.71;45.21;100076.66;5159012;27;20156;-60
2023/05/06 08:51:50;;;;;;;0.90;0.90;;;;;;;15.65;46.01;100078.13;5159308;27;20047;-59
2023/05/06 08:54:17;;;;;;;1.77;0.90;;;;;;;15.43;47.74;100064.06;5159181;27;20313;-57
2023/05/06 08:56:46;;;;;;;4.40;1.10;;;;;;;13.49;48.53;100075.78;5159212;27;20137;-59
2023/05/06 08:59:12;;;;;;;3.25;1.00;;;;;;;13.47;48.93;100077.34;5159130;27;20449;-63
2023/05/06 09:01:39;;;;;;;1.33;1.08;;;;;;;13.20;49.62;100074.38;5159310;27;20097;-63
2023/05/06 09:04:06;;;;;;;1.00;0.93;;;;;;;12.66;49.86;100073.16;5158936;27;20372;-62
2023/05/06 09:06:33;;;;;;;2.20;1.38;;;;;;;12.47;49.98;100081.34;5158703;27;20111;-58
2023/05/06 09:08:58;;;;;;;2.45;1.00;;;;;;;12.70;50.04;100085.03;5158659;27;20050;-57
2023/05/06 09:11:27;;;;;;;4.90;1.85;;;;;;;12.99;50.02;100077.44;5159123;27;20046;-61
2023/05/06 09:14:09;;;;;;;2.15;1.33;;;;;;;12.61;49.78;100076.16;5158593;27;20105;-63
2023/05/06 09:16:35;;;;;;;4.30;1.00;;;;;;;12.20;51.60;100080.25;5158819;27;20050;-59
2023/05/06 09:19:01;;;;;;;1.20;1.10;;;;;;;12.26;52.21;100084.31;5158935;27;20054;-59
2023/05/06 09:21:33;;;;;;;3.00;1.20;;;;;;;11.47;52.67;100084.13;5158130;27;20046;-61
2023/05/06 09:24:00;;;;;;;1.23;1.00;;;;;;;11.07;52.00;100084.91;5158894;27;20134;-56
2023/05/06 09:26:28;;;;;;;1.65;1.33;;;;;;;10.91;51.27;100084.00;5158537;27;20042;-58
2023/05/06 09:28:54;;;;;;;1.60;1.30;;;;;;;12.89;50.05;100081.53;5158850;27;20422;-59
2023/05/06 09:31:20;;;;;;;2.30;1.80;;;;;;;14.34;49.44;100078.59;5158306;27;20430;-57
2023/05/06 09:33:46;;;;;;;1.20;1.10;;;;;;;15.47;47.11;100070.44;5158851;27;20047;-57
2023/05/06 09:36:12;;;;;;;4.10;0.90;;;;;;;15.31;46.13;100069.81;5158272;27;20191;-60
2023/05/06 09:38:39;;;;;;;4.43;1.40;;;;;;;15.42;46.17;100069.94;5158296;27;20136;-64
2023/05/06 09:41:06;;;;;;;5.53;1.10;;;;;;;15.10;48.08;100064.81;5158529;27;20077;-57
2023/05/06 09:43:32;;;;;;;1.98;1.10;;;;;;;14.58;47.03;100058.13;5158351;27;20057;-57
2023/05/06 09:46:00;;;;;;;1.85;1.10;;;;;;;15.20;46.63;100058.63;5158210;27;20099;-60
2023/05/06 09:48:28;;;;;;;1.95;1.40;;;;;;;14.35;48.12;100063.63;5158048;27;20068;-63
2023/05/06 09:50:54;;;;;;;1.73;1.27;;;;;;;12.41;49.20;100061.53;5158590;27;20077;-62
2023/05/06 09:53:21;;;;;;;3.33;0.95;;;;;;;12.77;49.46;100051.41;5158215;27;20150;-57
2023/05/06 09:55:48;;;;;;;1.30;0.90;;;;;;;12.51;50.13;100057.47;5158480;27;20047;-63
2023/05/06 09:58:15;;;;;;;2.22;1.10;;;;;;;12.41;50.99;100056.03;5158112;27;20143;-58
2023/05/06 10:00:43;;;;;;;1.30;1.15;;;;;;;12.51;49.83;100053.91;5158526;27;20399;-61
2023/05/06 10:03:10;;;;;;;1.80;1.30;;;;;;;13.52;49.36;100055.78;5157798;27;20067;-63
2023/05/06 10:05:37;;;;;;;3.08;1.25;;;;;;;13.86;49.06;100050.53;5157912;27;20046;-61
2023/05/06 10:08:03;;;;;;;5.97;1.00;;;;;;;13.63;49.77;100051.31;5157894;27;20046;-61
2023/05/06 10:10:30;;;;;;;2.33;1.52;;;;;;;12.24;50.91;100043.44;5157873;27;20115;-55
2023/05/06 10:12:57;;;;;;;1.63;1.23;;;;;;;12.32;49.92;100043.63;5158188;27;20319;-58
2023/05/06 10:15:25;;;;;;;2.88;1.67;;;;;;;12.85;49.89;100039.38;5157755;27;20355;-62
2023/05/06 10:17:52;;;;;;;2.72;1.48;;;;;;;13.61;49.17;100037.09;5158122;27;20075;-56
2023/05/06 10:20:20;;;;;;;1.10;1.10;;;;;;;13.72;48.91;100033.72;5157860;27;20046;-60
2023/05/06 10:22:55;;;;;;;2.88;0.98;;;;;;;14.11;46.91;100032.47;5158180;27;20144;-63
2023/05/06 10:25:29;;;;;;;1.20;1.10;;;;;;;14.00;46.76;100026.00;5157702;27;20042;-58
2023/05/06 10:27:56;;;;;;;1.48;1.02;;;;;;;14.10;46.45;100019.09;5158079;27;20097;-57
2023/05/06 10:30:24;;;;;;;5.28;1.30;;;;;;;14.57;46.52;100018.69;5157831;27;20221;-59
2023/05/06 10:32:52;;;;;;;1.40;1.00;;;;;;;15.29;46.80;100006.66;5160165;27;20110;-64
2023/05/06 10:35:35;;;;;;;2.17;1.30;;;;;;;15.48;47.08;100013.97;5164062;27;20051;-64
2023/05/06 10:38:04;;;;;;;3.25;1.50;;;;;;;14.02;47.84;100006.31;5162110;27;20047;-58
2023/05/06 10:40:30;;;;;;;1.50;1.27;;;;;;;14.01;48.90;100005.53;5161602;27;20055;-58
2023/05/06 10:43:25;;;;;;;1.10;1.00;;;;;;;12.43;48.83;100017.22;5161208;27;20057;-56
2023/05/06 10:46:01;;;;;;;;;;;;;;;11.81;49.21;100010.50;5161942;27;20046;-62
2023/05/06 10:48:27;;;;;;;2.75;1.50;;;;;;;11.43;49.46;100006.31;5160975;27;19937;-63
2023/05/06 10:51:26;;;;;;;1.08;1.02;;;;;;;11.55;49.61;99998.84;5161254;27;20047;-55
2023/05/06 10:53:56;;;;;;;1.80;1.20;;;;;;;11.51;49.30;99999.91;5161308;27;20049;-58
2023/05/06 10:56:22;;;;;;;1.40;0.95;;;;;;;12.01;50.06;99987.50;5161009;27;20388;-64
2023/05/06 10:58:48;;;;;;;1.17;1.00;;;;;;;12.41;50.56;99981.78;5161358;27;20050;-64
2023/05/06 11:01:15;;;;;;;4.00;1.17;;;;;;;13.32;49.63;99986.13;5160814;27;20133;-65
2023/05/06 11:03:42;;;;;;;1.52;1.15;;;;;;;12.95;49.53;99980.25;5161352;27;20051;-57
2023/05/06 11:06:08;;;;;;;4.70;1.17;;;;;;;12.40;50.57;99987.66;5160647;27;20046;-56
2023/05/06 11:08:34;;;;;;;1.63;1.13;;;;;;;12.47;51.04;99990.56;5160914;27;20089;-63
2023/05/06 11:11:03;;;;;;;4.63;1.52;;;;;;;11.04;51.91;99984.06;5160817;27;20042;-58
2023/05/06 11:13:33;;;;;;;0.93;0.90;;;;;;;11.23;53.71;99989.72;5160935;27;20051;-58
2023/05/06 11:16:01;;;;;;;3.38;1.45;;;;;;;10.73;52.58;99979.22;5160763;27;20458;-60
2023/05/06 11:18:45;;;;;;;1.48;1.38;;;;;;;9.49;53.73;99982.19;5160783;27;20050;-57
2023/05/06 11:21:39;;;;;;;1.20;1.05;;;;;;;10.57;54.05;99979.16;5160913;27;20082;-63
2023/05/06 11:24:06;;;;;;;3.42;1.10;;;;;;;10.95;53.04;99983.41;5160517;27;20142;-65
2023/05/06 11:26:33;;;;;;;2.05;1.38;;;;;;;11.22;51.55;99962.63;5160904;27;20416;-61
2023/05/06 11:29:01;;;;;;;5.82;1.40;;;;;;;10.61;51.60;99977.31;5160464;27;20461;-62